createdAt,value
2017-10-01T00:00:46.276Z,1011.59
2017-10-01T00:01:46.241Z,1011.62
2017-10-01T00:02:46.203Z,1011.64
2017-10-01T00:03:46.166Z,1011.59
2017-10-01T00:04:46.131Z,1011.64
2017-10-01T00:05:46.094Z,1011.66
2017-10-01T00:06:46.056Z,1011.56
2017-10-01T00:07:46.023Z,1011.62
2017-10-01T00:08:45.985Z,1011.61
2017-10-01T00:09:45.950Z,1011.64
2017-10-01T00:10:45.912Z,1011.66
2017-10-01T00:11:45.876Z,1011.66
2017-10-01T00:12:45.841Z,1011.67
2017-10-01T00:13:45.798Z,1011.60
2017-10-01T00:14:45.768Z,1011.63
2017-10-01T00:15:45.732Z,1011.70
2017-10-01T00:16:45.694Z,1011.62
2017-10-01T00:17:45.660Z,1011.65
2017-10-01T00:18:45.623Z,1011.63
2017-10-01T00:19:45.585Z,1011.67
2017-10-01T00:20:45.550Z,1011.59
2017-10-01T00:21:45.513Z,1011.62
2017-10-01T00:22:45.475Z,1011.63
2017-10-01T00:23:45.441Z,1011.62
2017-10-01T00:24:45.406Z,1011.65
2017-10-01T00:25:45.367Z,1011.63
2017-10-01T00:26:45.331Z,1011.67
2017-10-01T00:27:45.293Z,1011.67
2017-10-01T00:28:45.262Z,1011.76
2017-10-01T00:29:45.221Z,1011.74
2017-10-01T00:30:45.195Z,1011.73
2017-10-01T00:31:45.148Z,1011.73
2017-10-01T00:32:45.113Z,1011.77
2017-10-01T00:33:45.076Z,1011.69
2017-10-01T00:34:45.041Z,1011.79
2017-10-01T00:35:45.006Z,1011.75
2017-10-01T00:36:44.967Z,1011.74
2017-10-01T00:37:44.931Z,1011.70
2017-10-01T00:38:44.893Z,1011.71
2017-10-01T00:39:44.857Z,1011.67
2017-10-01T00:40:44.823Z,1011.66
2017-10-01T00:41:44.786Z,1011.67
2017-10-01T00:42:44.761Z,1011.69
2017-10-01T00:43:44.714Z,1011.67
2017-10-01T00:44:44.677Z,1011.67
2017-10-01T00:45:44.640Z,1011.64
2017-10-01T00:46:44.604Z,1011.69
2017-10-01T00:47:44.566Z,1011.67
2017-10-01T00:48:44.530Z,1011.72
2017-10-01T00:49:44.496Z,1011.69
2017-10-01T00:50:44.458Z,1011.67
2017-10-01T00:51:44.422Z,1011.73
2017-10-01T00:52:44.387Z,1011.73
2017-10-01T00:53:44.352Z,1011.73
2017-10-01T00:54:44.313Z,1011.74
2017-10-01T00:55:44.279Z,1011.75
2017-10-01T00:56:44.239Z,1011.75
2017-10-01T00:57:44.205Z,1011.73
2017-10-01T00:58:44.167Z,1011.76
2017-10-01T00:59:44.130Z,1011.74
2017-10-01T01:00:44.097Z,1011.82
2017-10-01T01:01:44.059Z,1011.81
2017-10-01T01:02:44.021Z,1011.89
2017-10-01T01:03:43.986Z,1011.83
2017-10-01T01:04:43.948Z,1011.86
2017-10-01T01:05:43.912Z,1011.85
2017-10-01T01:06:43.876Z,1011.86
2017-10-01T01:07:43.839Z,1011.77
2017-10-01T01:08:43.802Z,1011.85
2017-10-01T01:09:43.766Z,1011.88
2017-10-01T01:10:43.730Z,1011.89
2017-10-01T01:11:43.692Z,1011.90
2017-10-01T01:12:43.658Z,1011.90
2017-10-01T01:13:43.620Z,1011.95
2017-10-01T01:14:43.583Z,1011.91
2017-10-01T01:15:43.545Z,1011.83
2017-10-01T01:16:43.514Z,1011.95
2017-10-01T01:17:43.474Z,1011.84
2017-10-01T01:18:43.437Z,1011.86
2017-10-01T01:19:43.399Z,1011.85
2017-10-01T01:20:43.365Z,1011.86
2017-10-01T01:21:43.331Z,1011.89
2017-10-01T01:22:43.290Z,1011.89
2017-10-01T01:23:43.256Z,1011.93
2017-10-01T01:24:43.217Z,1011.90
2017-10-01T01:25:43.181Z,1011.91
2017-10-01T01:26:43.144Z,1011.93
2017-10-01T01:27:43.109Z,1011.91
2017-10-01T01:28:43.069Z,1011.90
2017-10-01T01:29:43.035Z,1011.95
2017-10-01T01:30:42.998Z,1011.94
2017-10-01T01:31:42.960Z,1011.90
2017-10-01T01:32:42.923Z,1011.93
2017-10-01T01:33:42.888Z,1011.93
2017-10-01T01:34:42.850Z,1011.96
2017-10-01T01:35:42.816Z,1011.93
2017-10-01T01:36:42.778Z,1011.95
2017-10-01T01:37:42.742Z,1012.00
2017-10-01T01:38:42.706Z,1011.99
2017-10-01T01:39:42.668Z,1011.96
2017-10-01T01:40:42.631Z,1012.02
2017-10-01T01:41:42.595Z,1012.05
2017-10-01T01:42:42.558Z,1012.02
2017-10-01T01:43:42.524Z,1011.97
2017-10-01T01:44:42.486Z,1012.01
2017-10-01T01:45:42.449Z,1011.96
2017-10-01T01:46:42.411Z,1011.96
2017-10-01T01:47:42.375Z,1011.97
2017-10-01T01:48:42.338Z,1011.95
2017-10-01T01:49:42.303Z,1011.96
2017-10-01T01:50:42.266Z,1011.99
2017-10-01T01:51:42.231Z,1011.98
2017-10-01T01:52:42.192Z,1011.95
2017-10-01T01:53:42.157Z,1011.99
2017-10-01T01:54:42.118Z,1012.04
2017-10-01T01:55:42.083Z,1012.05
2017-10-01T01:56:42.039Z,1012.05
2017-10-01T01:57:42.009Z,1012.00
2017-10-01T01:58:41.971Z,1012.04
2017-10-01T01:59:41.935Z,1011.97
2017-10-01T02:00:41.909Z,1011.99
2017-10-01T02:01:41.862Z,1011.92
2017-10-01T02:02:41.824Z,1011.99
2017-10-01T02:03:41.789Z,1011.98
2017-10-01T02:04:41.752Z,1011.98
2017-10-01T02:05:41.716Z,1012.02
2017-10-01T02:06:41.678Z,1012.03
2017-10-01T02:07:41.641Z,1012.02
2017-10-01T02:08:41.605Z,1011.99
2017-10-01T02:09:41.571Z,1011.98
2017-10-01T02:10:41.531Z,1011.99
2017-10-01T02:11:41.495Z,1012.06
2017-10-01T02:12:41.457Z,1012.01
2017-10-01T02:13:41.421Z,1012.04
2017-10-01T02:14:41.383Z,1012.03
2017-10-01T02:15:41.354Z,1012.04
2017-10-01T02:16:41.310Z,1012.07
2017-10-01T02:17:41.273Z,1012.01
2017-10-01T02:18:41.235Z,1012.01
2017-10-01T02:19:41.200Z,1012.00
2017-10-01T02:20:41.164Z,1012.03
2017-10-01T02:21:41.126Z,1012.00
2017-10-01T02:22:41.089Z,1011.97
2017-10-01T02:23:41.052Z,1012.04
2017-10-01T02:24:41.015Z,1012.02
2017-10-01T02:25:40.980Z,1011.94
2017-10-01T02:26:40.940Z,1011.93
2017-10-01T02:27:40.906Z,1011.98
2017-10-01T02:28:40.866Z,1011.97
2017-10-01T02:29:40.832Z,1012.00
2017-10-01T02:30:40.795Z,1011.95
2017-10-01T02:31:40.757Z,1011.87
2017-10-01T02:32:40.730Z,1011.94
2017-10-01T02:33:40.676Z,1011.92
2017-10-01T02:34:40.646Z,1011.90
2017-10-01T02:35:41.359Z,1011.92
2017-10-01T02:36:40.571Z,1011.90
2017-10-01T02:37:40.535Z,1011.90
2017-10-01T02:38:40.498Z,1011.90
2017-10-01T02:39:40.461Z,1011.89
2017-10-01T02:40:40.422Z,1011.83
2017-10-01T02:41:40.384Z,1011.87
2017-10-01T02:42:40.347Z,1011.91
2017-10-01T02:43:40.310Z,1011.87
2017-10-01T02:44:40.273Z,1011.85
2017-10-01T02:45:40.235Z,1011.87
2017-10-01T02:46:40.198Z,1011.83
2017-10-01T02:47:40.160Z,1011.80
2017-10-01T02:48:40.121Z,1011.82
2017-10-01T02:49:40.088Z,1011.77
2017-10-01T02:50:40.047Z,1011.83
2017-10-01T02:51:40.011Z,1011.84
2017-10-01T02:52:39.973Z,1011.82
2017-10-01T02:53:39.936Z,1011.80
2017-10-01T02:54:39.900Z,1011.83
2017-10-01T02:55:39.859Z,1011.89
2017-10-01T02:56:39.823Z,1011.87
2017-10-01T02:57:39.786Z,1011.87
2017-10-01T02:58:39.747Z,1011.82
2017-10-01T02:59:39.710Z,1011.80
2017-10-01T03:00:39.674Z,1011.80
2017-10-01T03:01:39.636Z,1011.80
2017-10-01T03:02:39.597Z,1011.82
2017-10-01T03:03:39.561Z,1011.79
2017-10-01T03:04:39.523Z,1011.79
2017-10-01T03:05:39.486Z,1011.83
2017-10-01T03:06:39.446Z,1011.71
2017-10-01T03:07:39.410Z,1011.74
2017-10-01T03:08:39.389Z,1011.78
2017-10-01T03:09:39.337Z,1011.72
2017-10-01T03:10:39.296Z,1011.75
2017-10-01T03:11:39.263Z,1011.75
2017-10-01T03:12:39.222Z,1011.75
2017-10-01T03:13:39.186Z,1011.78
2017-10-01T03:14:39.147Z,1011.81
2017-10-01T03:15:39.109Z,1011.87
2017-10-01T03:16:39.072Z,1011.83
2017-10-01T03:17:39.037Z,1011.81
2017-10-01T03:18:38.999Z,1011.85
2017-10-01T03:19:38.962Z,1011.81
2017-10-01T03:20:38.924Z,1011.86
2017-10-01T03:21:38.889Z,1011.75
2017-10-01T03:22:38.848Z,1011.86
2017-10-01T03:23:38.812Z,1011.85
2017-10-01T03:24:38.775Z,1011.90
2017-10-01T03:25:38.737Z,1011.88
2017-10-01T03:26:38.699Z,1011.85
2017-10-01T03:27:38.662Z,1011.84
2017-10-01T03:28:38.629Z,1011.87
2017-10-01T03:29:38.592Z,1011.92
2017-10-01T03:30:38.554Z,1011.83
2017-10-01T03:31:38.513Z,1011.93
2017-10-01T03:32:38.476Z,1011.89
2017-10-01T03:33:38.436Z,1011.86
2017-10-01T03:34:38.399Z,1011.86
2017-10-01T03:35:38.361Z,1011.82
2017-10-01T03:36:38.325Z,1011.84
2017-10-01T03:37:38.289Z,1011.87
2017-10-01T03:38:38.249Z,1011.86
2017-10-01T03:39:38.212Z,1011.86
2017-10-01T03:40:38.176Z,1011.84
2017-10-01T03:41:38.139Z,1011.84
2017-10-01T03:42:38.098Z,1011.85
2017-10-01T03:43:38.061Z,1011.92
2017-10-01T03:44:38.025Z,1011.86
2017-10-01T03:45:37.989Z,1011.92
2017-10-01T03:46:37.949Z,1011.95
2017-10-01T03:47:37.911Z,1011.92
2017-10-01T03:48:37.874Z,1011.93
2017-10-01T03:49:37.837Z,1011.95
2017-10-01T03:50:37.799Z,1011.91
2017-10-01T03:51:37.761Z,1011.96
2017-10-01T03:52:37.725Z,1011.85
2017-10-01T03:53:37.688Z,1011.99
2017-10-01T03:54:37.647Z,1011.99
2017-10-01T03:55:37.611Z,1012.01
2017-10-01T03:56:37.574Z,1012.00
2017-10-01T03:57:37.537Z,1011.97
2017-10-01T03:58:37.496Z,1012.02
2017-10-01T03:59:37.484Z,1012.06
2017-10-01T04:00:37.424Z,1012.06
2017-10-01T04:01:37.387Z,1012.05
2017-10-01T04:02:37.346Z,1012.05
2017-10-01T04:03:37.310Z,1011.99
2017-10-01T04:04:37.273Z,1012.04
2017-10-01T04:05:37.235Z,1012.14
2017-10-01T04:06:37.198Z,1012.07
2017-10-01T04:07:37.160Z,1012.18
2017-10-01T04:08:37.124Z,1012.21
2017-10-01T04:09:37.087Z,1012.18
2017-10-01T04:10:37.047Z,1012.24
2017-10-01T04:11:37.012Z,1012.25
2017-10-01T04:12:36.974Z,1012.28
2017-10-01T04:13:36.935Z,1012.20
2017-10-01T04:14:36.896Z,1012.28
2017-10-01T04:15:36.861Z,1012.28
2017-10-01T04:16:36.822Z,1012.26
2017-10-01T04:17:36.785Z,1012.22
2017-10-01T04:18:36.754Z,1012.27
2017-10-01T04:19:36.710Z,1012.25
2017-10-01T04:20:36.673Z,1012.30
2017-10-01T04:21:36.634Z,1012.30
2017-10-01T04:22:36.597Z,1012.24
2017-10-01T04:23:36.560Z,1012.32
2017-10-01T04:24:36.522Z,1012.33
2017-10-01T04:25:36.484Z,1012.36
2017-10-01T04:26:36.447Z,1012.35
2017-10-01T04:27:36.409Z,1012.24
2017-10-01T04:28:36.371Z,1012.30
2017-10-01T04:29:36.334Z,1012.31
2017-10-01T04:30:36.295Z,1012.36
2017-10-01T04:31:36.257Z,1012.32
2017-10-01T04:32:36.223Z,1012.34
2017-10-01T04:33:36.183Z,1012.33
2017-10-01T04:34:36.146Z,1012.36
2017-10-01T04:35:36.112Z,1012.38
2017-10-01T04:36:36.072Z,1012.34
2017-10-01T04:37:36.037Z,1012.25
2017-10-01T04:38:35.996Z,1012.26
2017-10-01T04:39:35.959Z,1012.28
2017-10-01T04:40:35.924Z,1012.28
2017-10-01T04:41:35.885Z,1012.25
2017-10-01T04:42:35.847Z,1012.26
2017-10-01T04:43:35.811Z,1012.30
2017-10-01T04:44:35.772Z,1012.30
2017-10-01T04:45:35.736Z,1012.27
2017-10-01T04:46:35.697Z,1012.23
2017-10-01T04:47:35.663Z,1012.27
2017-10-01T04:48:35.624Z,1012.25
2017-10-01T04:49:35.589Z,1012.27
2017-10-01T04:50:35.549Z,1012.33
2017-10-01T04:51:35.513Z,1012.25
2017-10-01T04:52:35.477Z,1012.31
2017-10-01T04:53:35.439Z,1012.29
2017-10-01T04:54:35.402Z,1012.28
2017-10-01T04:55:35.364Z,1012.24
2017-10-01T04:56:35.328Z,1012.24
2017-10-01T04:57:35.289Z,1012.27
2017-10-01T04:58:35.253Z,1012.32
2017-10-01T04:59:35.215Z,1012.34
2017-10-01T05:00:35.178Z,1012.34
2017-10-01T05:01:35.143Z,1012.30
2017-10-01T05:02:35.105Z,1012.32
2017-10-01T05:03:35.067Z,1012.31
2017-10-01T05:04:35.032Z,1012.26
2017-10-01T05:05:34.994Z,1012.29
2017-10-01T05:06:34.955Z,1012.30
2017-10-01T05:07:34.942Z,1012.21
2017-10-01T05:08:34.884Z,1012.21
2017-10-01T05:09:34.847Z,1012.18
2017-10-01T05:10:34.807Z,1012.16
2017-10-01T05:11:34.774Z,1012.20
2017-10-01T05:12:34.736Z,1012.19
2017-10-01T05:13:34.700Z,1012.10
2017-10-01T05:14:34.663Z,1012.18
2017-10-01T05:15:34.626Z,1012.21
2017-10-01T05:16:34.591Z,1012.20
2017-10-01T05:17:34.554Z,1012.17
2017-10-01T05:18:34.515Z,1012.18
2017-10-01T05:19:34.479Z,1012.12
2017-10-01T05:20:34.443Z,1012.17
2017-10-01T05:21:34.407Z,1012.17
2017-10-01T05:22:34.372Z,1012.17
2017-10-01T05:23:34.333Z,1012.15
2017-10-01T05:24:34.300Z,1012.06
2017-10-01T05:25:34.261Z,1012.10
2017-10-01T05:26:34.223Z,1012.16
2017-10-01T05:27:34.186Z,1012.18
2017-10-01T05:28:34.150Z,1012.19
2017-10-01T05:29:34.114Z,1012.23
2017-10-01T05:30:34.096Z,1012.25
2017-10-01T05:31:34.041Z,1012.22
2017-10-01T05:32:34.004Z,1012.25
2017-10-01T05:33:33.969Z,1012.20
2017-10-01T05:34:33.931Z,1012.24
2017-10-01T05:35:33.895Z,1012.27
2017-10-01T05:36:33.858Z,1012.14
2017-10-01T05:37:33.820Z,1012.18
2017-10-01T05:38:33.787Z,1012.22
2017-10-01T05:39:33.750Z,1012.15
2017-10-01T05:40:33.712Z,1012.21
2017-10-01T05:41:33.677Z,1012.31
2017-10-01T05:42:33.642Z,1012.25
2017-10-01T05:43:33.604Z,1012.29
2017-10-01T05:44:33.568Z,1012.27
2017-10-01T05:45:33.530Z,1012.29
2017-10-01T05:46:33.499Z,1012.32
2017-10-01T05:47:33.458Z,1012.33
2017-10-01T05:48:33.422Z,1012.31
2017-10-01T05:49:33.391Z,1012.35
2017-10-01T05:50:33.350Z,1012.27
2017-10-01T05:51:33.326Z,1012.28
2017-10-01T05:52:33.277Z,1012.24
2017-10-01T05:53:33.242Z,1012.23
2017-10-01T05:54:33.204Z,1012.29
2017-10-01T05:55:33.169Z,1012.25
2017-10-01T05:56:33.132Z,1012.27
2017-10-01T05:57:33.096Z,1012.31
2017-10-01T05:58:33.060Z,1012.33
2017-10-01T05:59:33.024Z,1012.32
2017-10-01T06:00:32.988Z,1012.31
2017-10-01T06:01:32.951Z,1012.38
2017-10-01T06:02:32.914Z,1012.36
2017-10-01T06:03:32.880Z,1012.43
2017-10-01T06:04:32.843Z,1012.38
2017-10-01T06:05:32.807Z,1012.39
2017-10-01T06:06:32.773Z,1012.41
2017-10-01T06:07:32.736Z,1012.42
2017-10-01T06:08:32.700Z,1012.42
2017-10-01T06:09:32.663Z,1012.42
2017-10-01T06:10:32.625Z,1012.36
2017-10-01T06:11:32.592Z,1012.34
2017-10-01T06:12:32.580Z,1012.36
2017-10-01T06:13:32.522Z,1012.34
2017-10-01T06:14:32.485Z,1012.33
2017-10-01T06:15:32.448Z,1012.38
2017-10-01T06:16:32.412Z,1012.39
2017-10-01T06:17:32.377Z,1012.31
2017-10-01T06:18:32.341Z,1012.40
2017-10-01T06:19:32.304Z,1012.41
2017-10-01T06:20:32.269Z,1012.34
2017-10-01T06:21:32.234Z,1012.32
2017-10-01T06:22:32.198Z,1012.36
2017-10-01T06:23:32.162Z,1012.36
2017-10-01T06:24:32.126Z,1012.33
2017-10-01T06:25:32.097Z,1012.26
2017-10-01T06:26:32.053Z,1012.25
2017-10-01T06:27:32.020Z,1012.38
2017-10-01T06:28:31.995Z,1012.31
2017-10-01T06:29:31.948Z,1012.39
2017-10-01T06:30:31.912Z,1012.38
2017-10-01T06:31:31.879Z,1012.41
2017-10-01T06:32:31.851Z,1012.43
2017-10-01T06:33:31.806Z,1012.41
2017-10-01T06:34:31.771Z,1012.39
2017-10-01T06:35:31.735Z,1012.34
2017-10-01T06:36:31.702Z,1012.37
2017-10-01T06:37:31.669Z,1012.38
2017-10-01T06:38:31.632Z,1012.42
2017-10-01T06:39:31.596Z,1012.33
2017-10-01T06:40:31.562Z,1012.44
2017-10-01T06:41:31.524Z,1012.44
2017-10-01T06:42:31.492Z,1012.35
2017-10-01T06:43:31.456Z,1012.40
2017-10-01T06:44:31.425Z,1012.42
2017-10-01T06:45:31.392Z,1012.49
2017-10-01T06:46:31.355Z,1012.45
2017-10-01T06:47:31.322Z,1012.44
2017-10-01T06:48:31.290Z,1012.49
2017-10-01T06:49:31.254Z,1012.45
2017-10-01T06:50:31.220Z,1012.40
2017-10-01T06:51:31.187Z,1012.48
2017-10-01T06:52:31.153Z,1012.40
2017-10-01T06:53:31.121Z,1012.47
2017-10-01T06:54:31.087Z,1012.41
2017-10-01T06:55:31.054Z,1012.40
2017-10-01T06:56:31.021Z,1012.42
2017-10-01T06:57:30.989Z,1012.44
2017-10-01T06:58:30.955Z,1012.50
2017-10-01T06:59:30.921Z,1012.53
2017-10-01T07:00:30.890Z,1012.47
2017-10-01T07:01:30.858Z,1012.51
2017-10-01T07:02:30.824Z,1012.46
2017-10-01T07:03:30.795Z,1012.45
2017-10-01T07:04:30.760Z,1012.60
2017-10-01T07:05:30.728Z,1012.54
2017-10-01T07:06:30.696Z,1012.46
2017-10-01T07:07:30.669Z,1012.48
2017-10-01T07:08:30.633Z,1012.53
2017-10-01T07:09:30.602Z,1012.59
2017-10-01T07:10:30.571Z,1012.56
2017-10-01T07:11:30.545Z,1012.44
2017-10-01T07:12:30.508Z,1012.54
2017-10-01T07:13:30.476Z,1012.48
2017-10-01T07:14:30.445Z,1012.50
2017-10-01T07:15:30.428Z,1012.42
2017-10-01T07:16:30.381Z,1012.45
2017-10-01T07:17:30.349Z,1012.42
2017-10-01T07:18:30.316Z,1012.46
2017-10-01T07:19:30.284Z,1012.46
2017-10-01T07:20:30.252Z,1012.42
2017-10-01T07:21:30.221Z,1012.46
2017-10-01T07:22:30.187Z,1012.47
2017-10-01T07:23:30.154Z,1012.41
2017-10-01T07:24:30.124Z,1012.42
2017-10-01T07:25:30.092Z,1012.39
2017-10-01T07:26:30.057Z,1012.46
2017-10-01T07:27:30.025Z,1012.50
2017-10-01T07:28:29.992Z,1012.49
2017-10-01T07:29:29.958Z,1012.49
2017-10-01T07:30:29.927Z,1012.52
2017-10-01T07:31:29.895Z,1012.56
2017-10-01T07:32:29.862Z,1012.59
2017-10-01T07:33:29.831Z,1012.60
2017-10-01T07:34:29.798Z,1012.55
2017-10-01T07:35:29.766Z,1012.53
2017-10-01T07:36:29.736Z,1012.55
2017-10-01T07:37:29.704Z,1012.60
2017-10-01T07:38:29.674Z,1012.60
2017-10-01T07:39:29.644Z,1012.56
2017-10-01T07:40:29.614Z,1012.58
2017-10-01T07:41:29.588Z,1012.62
2017-10-01T07:42:29.556Z,1012.55
2017-10-01T07:43:29.525Z,1012.59
2017-10-01T07:44:29.498Z,1012.55
2017-10-01T07:45:29.468Z,1012.51
2017-10-01T07:46:29.439Z,1012.51
2017-10-01T07:47:29.414Z,1012.47
2017-10-01T07:48:29.385Z,1012.48
2017-10-01T07:49:29.356Z,1012.50
2017-10-01T07:50:29.330Z,1012.42
2017-10-01T07:51:29.303Z,1012.49
2017-10-01T07:52:29.274Z,1012.52
2017-10-01T07:53:29.248Z,1012.64
2017-10-01T07:54:29.222Z,1012.63
2017-10-01T07:55:29.193Z,1012.68
2017-10-01T07:56:29.167Z,1012.66
2017-10-01T07:57:29.141Z,1012.72
2017-10-01T07:58:29.122Z,1012.70
2017-10-01T07:59:29.088Z,1012.69
2017-10-01T08:00:29.062Z,1012.71
2017-10-01T08:01:29.036Z,1012.72
2017-10-01T08:02:29.010Z,1012.58
2017-10-01T08:03:28.984Z,1012.64
2017-10-01T08:04:28.963Z,1012.56
2017-10-01T08:05:28.931Z,1012.59
2017-10-01T08:06:28.910Z,1012.62
2017-10-01T08:07:28.883Z,1012.59
2017-10-01T08:08:28.857Z,1012.55
2017-10-01T08:09:28.833Z,1012.54
2017-10-01T08:10:28.812Z,1012.44
2017-10-01T08:11:28.783Z,1012.52
2017-10-01T08:12:28.759Z,1012.55
2017-10-01T08:13:28.734Z,1012.47
2017-10-01T08:14:28.708Z,1012.56
2017-10-01T08:15:28.683Z,1012.55
2017-10-01T08:16:28.658Z,1012.58
2017-10-01T08:17:28.634Z,1012.59
2017-10-01T08:18:28.609Z,1012.56
2017-10-01T08:19:28.584Z,1012.58
2017-10-01T08:20:28.560Z,1012.63
2017-10-01T08:21:28.548Z,1012.59
2017-10-01T08:22:28.512Z,1012.66
2017-10-01T08:23:28.497Z,1012.70
2017-10-01T08:24:28.462Z,1012.76
2017-10-01T08:25:28.440Z,1012.68
2017-10-01T08:26:28.416Z,1012.72
2017-10-01T08:27:28.391Z,1012.72
2017-10-01T08:28:28.368Z,1012.77
2017-10-01T08:29:28.345Z,1012.73
2017-10-01T08:30:28.321Z,1012.75
2017-10-01T08:31:28.300Z,1012.66
2017-10-01T08:32:28.277Z,1012.77
2017-10-01T08:33:28.258Z,1012.73
2017-10-01T08:34:28.227Z,1012.75
2017-10-01T08:35:28.205Z,1012.79
2017-10-01T08:36:28.183Z,1012.76
2017-10-01T08:37:28.158Z,1012.60
2017-10-01T08:38:28.136Z,1012.55
2017-10-01T08:39:28.112Z,1012.53
2017-10-01T08:40:28.089Z,1012.55
2017-10-01T08:41:28.066Z,1012.62
2017-10-01T08:42:28.040Z,1012.64
2017-10-01T08:43:28.018Z,1012.71
2017-10-01T08:44:27.993Z,1012.67
2017-10-01T08:45:27.969Z,1012.67
2017-10-01T08:46:27.946Z,1012.62
2017-10-01T08:47:27.922Z,1012.55
2017-10-01T08:48:27.898Z,1012.57
2017-10-01T08:49:27.873Z,1012.51
2017-10-01T08:50:27.851Z,1012.58
2017-10-01T08:51:27.827Z,1012.57
2017-10-01T08:52:27.805Z,1012.53
2017-10-01T08:53:27.782Z,1012.53
2017-10-01T08:54:27.759Z,1012.55
2017-10-01T08:55:27.736Z,1012.53
2017-10-01T08:56:27.712Z,1012.56
2017-10-01T08:57:27.691Z,1012.56
2017-10-01T08:58:27.666Z,1012.68
2017-10-01T08:59:27.647Z,1012.67
2017-10-01T09:00:27.623Z,1012.73
2017-10-01T09:01:27.601Z,1012.68
2017-10-01T09:02:27.578Z,1012.69
2017-10-01T09:03:27.556Z,1012.72
2017-10-01T09:04:27.538Z,1012.68
2017-10-01T09:05:27.513Z,1012.65
2017-10-01T09:06:27.489Z,1012.69
2017-10-01T09:07:27.469Z,1012.61
2017-10-01T09:08:27.448Z,1012.62
2017-10-01T09:09:27.424Z,1012.64
2017-10-01T09:10:27.400Z,1012.56
2017-10-01T09:11:27.379Z,1012.57
2017-10-01T09:12:27.359Z,1012.52
2017-10-01T09:13:27.336Z,1012.51
2017-10-01T09:14:27.344Z,1012.54
2017-10-01T09:15:27.291Z,1012.46
2017-10-01T09:16:27.270Z,1012.55
2017-10-01T09:17:27.250Z,1012.52
2017-10-01T09:18:27.234Z,1012.60
2017-10-01T09:19:27.205Z,1012.50
2017-10-01T09:20:27.183Z,1012.49
2017-10-01T09:21:27.161Z,1012.34
2017-10-01T09:22:27.137Z,1012.54
2017-10-01T09:23:27.118Z,1012.40
2017-10-01T09:24:27.098Z,1012.46
2017-10-01T09:25:27.074Z,1012.53
2017-10-01T09:26:27.050Z,1012.51
2017-10-01T09:27:27.029Z,1012.53
2017-10-01T09:28:27.005Z,1012.58
2017-10-01T09:29:26.982Z,1012.59
2017-10-01T09:30:26.962Z,1012.55
2017-10-01T09:31:26.945Z,1012.39
2017-10-01T09:32:26.916Z,1012.42
2017-10-01T09:33:26.895Z,1012.49
2017-10-01T09:34:26.870Z,1012.56
2017-10-01T09:35:26.848Z,1012.62
2017-10-01T09:36:26.827Z,1012.60
2017-10-01T09:37:26.805Z,1012.51
2017-10-01T09:38:26.780Z,1012.52
2017-10-01T09:39:26.760Z,1012.56
2017-10-01T09:40:26.739Z,1012.64
2017-10-01T09:41:26.725Z,1012.59
2017-10-01T09:42:26.692Z,1012.70
2017-10-01T09:43:26.674Z,1012.87
2017-10-01T09:44:26.650Z,1012.57
2017-10-01T09:45:26.629Z,1012.53
2017-10-01T09:46:26.608Z,1012.56
2017-10-01T09:47:26.586Z,1012.66
2017-10-01T09:48:26.565Z,1012.49
2017-10-01T09:49:26.543Z,1012.97
2017-10-01T09:50:26.520Z,1012.83
2017-10-01T09:51:26.501Z,1012.47
2017-10-01T09:52:27.418Z,1012.78
2017-10-01T09:53:26.457Z,1012.78
2017-10-01T09:54:26.437Z,1012.62
2017-10-01T09:55:26.414Z,1012.56
2017-10-01T09:56:26.391Z,1012.56
2017-10-01T09:57:26.371Z,1012.42
2017-10-01T09:58:26.347Z,1012.34
2017-10-01T09:59:26.328Z,1012.40
2017-10-01T10:00:26.302Z,1012.63
2017-10-01T10:01:26.284Z,1012.50
2017-10-01T10:02:26.261Z,1012.68
2017-10-01T10:03:26.243Z,1012.74
2017-10-01T10:04:26.218Z,1012.91
2017-10-01T10:05:26.197Z,1012.74
2017-10-01T10:06:26.173Z,1012.81
2017-10-01T10:07:26.150Z,1013.12
2017-10-01T10:08:26.133Z,1013.01
2017-10-01T10:09:26.111Z,1012.93
2017-10-01T10:10:26.087Z,1012.92
2017-10-01T10:11:26.067Z,1012.94
2017-10-01T10:12:26.057Z,1012.64
2017-10-01T10:13:26.024Z,1012.80
2017-10-01T10:14:26.002Z,1012.73
2017-10-01T10:15:25.984Z,1013.03
2017-10-01T10:16:25.962Z,1012.98
2017-10-01T10:17:25.940Z,1013.18
2017-10-01T10:18:25.918Z,1013.16
2017-10-01T10:19:25.899Z,1012.98
2017-10-01T10:20:25.879Z,1012.92
2017-10-01T10:21:25.858Z,1012.91
2017-10-01T10:22:25.837Z,1012.75
2017-10-01T10:23:25.817Z,1012.78
2017-10-01T10:24:25.798Z,1012.52
2017-10-01T10:25:25.778Z,1012.53
2017-10-01T10:26:25.756Z,1012.57
2017-10-01T10:27:25.735Z,1012.42
2017-10-01T10:28:25.716Z,1012.83
2017-10-01T10:29:25.695Z,1013.00
2017-10-01T10:30:25.674Z,1013.01
2017-10-01T10:31:25.655Z,1012.86
2017-10-01T10:32:25.634Z,1012.63
2017-10-01T10:33:25.614Z,1012.87
2017-10-01T10:34:25.594Z,1012.78
2017-10-01T10:35:25.574Z,1012.98
2017-10-01T10:36:25.554Z,1012.68
2017-10-01T10:37:25.535Z,1012.64
2017-10-01T10:38:25.514Z,1012.64
2017-10-01T10:39:25.493Z,1013.09
2017-10-01T10:40:25.474Z,1012.70
2017-10-01T10:41:25.457Z,1012.87
2017-10-01T10:42:25.434Z,1012.61
2017-10-01T10:43:25.414Z,1012.65
2017-10-01T10:44:25.389Z,1012.57
2017-10-01T10:45:25.374Z,1012.67
2017-10-01T10:46:25.353Z,1012.77
2017-10-01T10:47:25.334Z,1012.48
2017-10-01T10:48:25.314Z,1012.27
2017-10-01T10:49:25.295Z,1012.32
2017-10-01T10:50:25.275Z,1012.45
2017-10-01T10:51:25.256Z,1012.49
2017-10-01T10:52:25.236Z,1012.35
2017-10-01T10:53:25.216Z,1012.36
2017-10-01T10:54:25.197Z,1012.47
2017-10-01T10:55:25.177Z,1012.39
2017-10-01T10:56:25.156Z,1012.02
2017-10-01T10:57:25.139Z,1012.03
2017-10-01T10:58:25.118Z,1011.94
2017-10-01T10:59:25.100Z,1012.16
2017-10-01T11:00:25.079Z,1012.27
2017-10-01T11:01:25.060Z,1012.23
2017-10-01T11:02:25.040Z,1012.18
2017-10-01T11:03:25.020Z,1012.12
2017-10-01T11:04:25.001Z,1012.16
2017-10-01T11:05:24.981Z,1012.09
2017-10-01T11:06:24.964Z,1012.02
2017-10-01T11:07:24.943Z,1011.84
2017-10-01T11:08:24.923Z,1011.93
2017-10-01T11:09:24.903Z,1011.88
2017-10-01T11:10:24.878Z,1011.96
2017-10-01T11:11:24.862Z,1011.93
2017-10-01T11:12:24.842Z,1012.00
2017-10-01T11:13:24.820Z,1012.03
2017-10-01T11:14:24.802Z,1012.03
2017-10-01T11:15:24.778Z,1011.98
2017-10-01T11:16:24.761Z,1011.98
2017-10-01T11:17:24.741Z,1012.04
2017-10-01T11:18:24.719Z,1012.02
2017-10-01T11:19:24.700Z,1011.92
2017-10-01T11:20:24.680Z,1011.98
2017-10-01T11:21:24.661Z,1012.00
2017-10-01T11:22:24.640Z,1012.04
2017-10-01T11:23:24.618Z,1011.91
2017-10-01T11:24:24.600Z,1011.95
2017-10-01T11:25:24.577Z,1011.85
2017-10-01T11:26:24.559Z,1011.83
2017-10-01T11:27:24.537Z,1011.80
2017-10-01T11:28:24.518Z,1011.88
2017-10-01T11:29:24.497Z,1011.80
2017-10-01T11:30:24.476Z,1011.87
2017-10-01T11:31:24.456Z,1011.94
2017-10-01T11:32:24.437Z,1011.96
2017-10-01T11:33:24.416Z,1012.01
2017-10-01T11:34:24.397Z,1011.95
2017-10-01T11:35:24.378Z,1011.96
2017-10-01T11:36:24.356Z,1011.90
2017-10-01T11:37:24.345Z,1011.97
2017-10-01T11:38:24.317Z,1011.83
2017-10-01T11:39:24.297Z,1011.94
2017-10-01T11:40:24.280Z,1011.97
2017-10-01T11:41:24.259Z,1011.93
2017-10-01T11:42:24.239Z,1011.98
2017-10-01T11:43:24.220Z,1012.00
2017-10-01T11:44:24.202Z,1011.97
2017-10-01T11:45:24.182Z,1011.97
2017-10-01T11:46:24.165Z,1011.93
2017-10-01T11:47:24.146Z,1011.79
2017-10-01T11:48:24.130Z,1011.91
2017-10-01T11:49:24.109Z,1011.96
2017-10-01T11:50:24.093Z,1011.92
2017-10-01T11:51:24.075Z,1011.83
2017-10-01T11:52:24.058Z,1011.92
2017-10-01T11:53:24.040Z,1011.97
2017-10-01T11:54:24.022Z,1011.94
2017-10-01T11:55:24.004Z,1011.94
2017-10-01T11:56:23.987Z,1011.92
2017-10-01T11:57:23.970Z,1011.85
2017-10-01T11:58:23.951Z,1011.80
2017-10-01T11:59:23.934Z,1011.92
2017-10-01T12:00:23.918Z,1011.81
2017-10-01T12:01:23.899Z,1011.76
2017-10-01T12:02:23.882Z,1011.78
2017-10-01T12:03:23.863Z,1011.77
2017-10-01T12:04:23.848Z,1011.75
2017-10-01T12:05:23.830Z,1011.66